createdAt,value
2019-03-23T00:00:46.210Z,20.03
2019-03-23T00:01:49.488Z,20.01
2019-03-23T00:02:51.093Z,20.00
2019-03-23T00:03:52.483Z,19.99
2019-03-23T00:04:53.996Z,19.98
2019-03-23T00:05:55.376Z,19.96
2019-03-23T00:06:56.853Z,19.96
2019-03-23T00:07:58.230Z,19.95
2019-03-23T00:08:59.621Z,19.94
2019-03-23T00:10:00.991Z,19.95
2019-03-23T00:11:02.395Z,19.94
2019-03-23T00:12:03.773Z,19.94
2019-03-23T00:13:05.169Z,19.93
2019-03-23T00:14:06.667Z,19.92
2019-03-23T00:15:10.252Z,19.92
2019-03-23T00:16:11.627Z,19.93
2019-03-23T00:17:13.124Z,19.92
2019-03-23T00:18:14.538Z,19.93
2019-03-23T00:19:16.025Z,19.92
2019-03-23T00:20:17.501Z,19.92
2019-03-23T00:21:19.007Z,19.92
2019-03-23T00:22:20.380Z,19.91
2019-03-23T00:23:21.781Z,19.90
2019-03-23T00:24:23.169Z,19.90
2019-03-23T00:25:24.552Z,19.89
2019-03-23T00:26:25.986Z,19.89
2019-03-23T00:27:27.375Z,19.88
2019-03-23T00:28:28.759Z,19.89
2019-03-23T00:29:30.340Z,19.88
2019-03-23T00:30:35.636Z,19.88
2019-03-23T00:31:37.153Z,19.87
2019-03-23T00:32:39.528Z,19.87
2019-03-23T00:33:41.033Z,19.86
2019-03-23T00:34:42.424Z,19.86
2019-03-23T00:35:43.920Z,19.85
2019-03-23T00:36:45.412Z,19.84
2019-03-23T00:37:46.963Z,19.84
2019-03-23T00:38:48.445Z,19.83
2019-03-23T00:39:49.836Z,19.82
2019-03-23T00:40:51.222Z,19.82
2019-03-23T00:41:52.605Z,19.81
2019-03-23T00:42:53.996Z,19.81
2019-03-23T00:43:55.480Z,19.81
2019-03-23T00:44:56.885Z,19.80
2019-03-23T00:45:58.348Z,19.80
2019-03-23T00:46:59.740Z,19.79
2019-03-23T00:48:02.222Z,19.78
2019-03-23T00:49:03.625Z,19.78
2019-03-23T00:50:06.019Z,19.77
2019-03-23T00:51:07.400Z,19.76
2019-03-23T00:52:08.793Z,19.66
2019-03-23T00:53:10.177Z,19.75
2019-03-23T00:54:11.580Z,19.76
2019-03-23T00:55:13.113Z,19.75
2019-03-23T00:56:16.506Z,19.74
2019-03-23T00:57:17.873Z,19.74
2019-03-23T00:58:19.280Z,19.75
2019-03-23T00:59:20.691Z,19.75
2019-03-23T01:00:22.092Z,19.76
2019-03-23T01:01:23.649Z,19.76
2019-03-23T01:02:25.165Z,19.76
2019-03-23T01:03:26.545Z,19.76
2019-03-23T01:04:27.944Z,19.76
2019-03-23T01:05:29.335Z,19.76
2019-03-23T01:06:30.749Z,19.76
2019-03-23T01:07:32.144Z,19.76
2019-03-23T01:08:33.832Z,19.76
2019-03-23T01:09:35.196Z,19.76
2019-03-23T01:10:36.596Z,19.75
2019-03-23T01:11:37.974Z,19.76
2019-03-23T01:12:39.377Z,19.75
2019-03-23T01:13:40.859Z,19.77
2019-03-23T01:14:42.256Z,19.77
2019-03-23T01:15:43.644Z,19.78
2019-03-23T01:16:45.136Z,19.77
2019-03-23T01:17:46.526Z,19.78
2019-03-23T01:18:47.926Z,19.78
2019-03-23T01:19:49.307Z,19.78
2019-03-23T01:20:50.711Z,19.79
2019-03-23T01:21:52.183Z,19.79
2019-03-23T01:22:53.690Z,19.79
2019-03-23T01:23:55.076Z,19.81
2019-03-23T01:24:56.477Z,19.79
2019-03-23T01:25:58.947Z,19.80
2019-03-23T01:27:00.350Z,19.81
2019-03-23T01:28:01.841Z,19.79
2019-03-23T01:29:03.323Z,19.80
2019-03-23T01:30:07.807Z,19.78
2019-03-23T01:31:09.210Z,19.78
2019-03-23T01:32:10.697Z,19.79
2019-03-23T01:33:12.201Z,19.78
2019-03-23T01:34:13.570Z,19.78
2019-03-23T01:35:14.973Z,19.77
2019-03-23T01:36:16.468Z,19.75
2019-03-23T01:37:17.855Z,19.74
2019-03-23T01:38:19.232Z,19.74
2019-03-23T01:39:20.711Z,19.74
2019-03-23T01:40:22.190Z,19.73
2019-03-23T01:41:23.612Z,19.73
2019-03-23T01:42:25.099Z,19.72
2019-03-23T01:43:26.488Z,19.72
2019-03-23T01:44:27.880Z,19.71
2019-03-23T01:45:29.264Z,19.71
2019-03-23T01:46:30.691Z,19.70
2019-03-23T01:47:32.069Z,19.70
2019-03-23T01:48:33.471Z,19.69
2019-03-23T01:49:34.852Z,19.68
2019-03-23T01:50:36.246Z,19.68
2019-03-23T01:51:37.659Z,19.67
2019-03-23T01:52:39.158Z,19.66
2019-03-23T01:53:40.543Z,19.66
2019-03-23T01:54:42.032Z,19.65
2019-03-23T01:55:43.425Z,19.65
2019-03-23T01:56:44.835Z,19.64
2019-03-23T01:57:46.209Z,19.64
2019-03-23T01:58:47.609Z,19.64
2019-03-23T01:59:48.984Z,19.64
2019-03-23T02:00:50.481Z,19.63
2019-03-23T02:01:52.868Z,19.64
2019-03-23T02:02:54.249Z,19.64
2019-03-23T02:03:56.110Z,19.64
2019-03-23T02:04:57.498Z,19.64
2019-03-23T02:05:58.984Z,19.64
2019-03-23T02:07:00.484Z,19.64
2019-03-23T02:08:01.862Z,19.63
2019-03-23T02:09:05.749Z,19.64
2019-03-23T02:10:08.902Z,19.65
2019-03-23T02:11:10.381Z,19.65
2019-03-23T02:12:11.887Z,19.65
2019-03-23T02:13:13.381Z,19.65
2019-03-23T02:14:14.768Z,19.66
2019-03-23T02:15:16.363Z,19.65
2019-03-23T02:16:17.747Z,19.64
2019-03-23T02:17:19.236Z,19.65
2019-03-23T02:18:20.612Z,19.64
2019-03-23T02:19:22.007Z,19.64
2019-03-23T02:20:23.493Z,19.63
2019-03-23T02:21:24.895Z,19.63
2019-03-23T02:22:26.320Z,19.64
2019-03-23T02:23:27.732Z,19.64
2019-03-23T02:24:29.144Z,19.64
2019-03-23T02:25:30.634Z,19.64
2019-03-23T02:26:32.042Z,19.63
2019-03-23T02:27:34.344Z,19.63
2019-03-23T02:28:35.720Z,19.62
2019-03-23T02:29:37.118Z,19.62
2019-03-23T02:30:38.494Z,19.62
2019-03-23T02:31:39.905Z,19.61
2019-03-23T02:32:41.274Z,19.60
2019-03-23T02:33:42.686Z,19.60
2019-03-23T02:34:44.135Z,19.59
2019-03-23T02:35:45.517Z,19.59
2019-03-23T02:36:47.020Z,19.57
2019-03-23T02:37:48.423Z,19.57
2019-03-23T02:38:49.813Z,19.57
2019-03-23T02:39:51.186Z,19.57
2019-03-23T02:40:53.777Z,19.56
2019-03-23T02:41:55.247Z,19.56
2019-03-23T02:42:56.629Z,19.55
2019-03-23T02:43:58.021Z,19.54
2019-03-23T02:44:59.413Z,19.54
2019-03-23T02:46:00.925Z,19.53
2019-03-23T02:47:02.416Z,19.54
2019-03-23T02:48:04.113Z,19.53
2019-03-23T02:49:05.495Z,19.53
2019-03-23T02:50:08.594Z,19.53
2019-03-23T02:51:10.063Z,19.52
2019-03-23T02:52:11.454Z,19.53
2019-03-23T02:53:12.867Z,19.51
2019-03-23T02:54:14.256Z,19.53
2019-03-23T02:55:15.641Z,19.53
2019-03-23T02:56:17.024Z,19.53
2019-03-23T02:57:18.401Z,19.53
2019-03-23T02:58:19.811Z,19.54
2019-03-23T02:59:21.319Z,19.54
2019-03-23T03:00:22.722Z,19.53
2019-03-23T03:01:24.130Z,19.53
2019-03-23T03:02:25.540Z,19.53
2019-03-23T03:03:26.939Z,19.54
2019-03-23T03:04:28.309Z,19.54
2019-03-23T03:05:29.727Z,19.53
2019-03-23T03:06:35.516Z,19.54
2019-03-23T03:07:42.667Z,19.54
2019-03-23T03:08:40.243Z,19.54
2019-03-23T03:09:41.761Z,19.53
2019-03-23T03:10:43.223Z,19.54
2019-03-23T03:11:44.700Z,19.54
2019-03-23T03:12:46.077Z,19.54
2019-03-23T03:13:47.473Z,19.56
2019-03-23T03:14:48.864Z,19.55
2019-03-23T03:15:50.259Z,19.55
2019-03-23T03:16:51.632Z,19.56
2019-03-23T03:17:53.145Z,19.57
2019-03-23T03:18:54.677Z,19.56
2019-03-23T03:19:56.061Z,19.55
2019-03-23T03:20:57.459Z,19.55
2019-03-23T03:21:58.831Z,19.55
2019-03-23T03:23:00.211Z,19.55
2019-03-23T03:24:01.621Z,19.55
2019-03-23T03:25:04.993Z,19.54
2019-03-23T03:26:07.727Z,19.54
2019-03-23T03:27:09.107Z,19.54
2019-03-23T03:28:11.513Z,19.54
2019-03-23T03:29:12.923Z,19.52
2019-03-23T03:30:14.377Z,19.52
2019-03-23T03:31:15.891Z,19.52
2019-03-23T03:32:18.244Z,19.51
2019-03-23T03:33:19.632Z,19.49
2019-03-23T03:34:21.032Z,19.48
2019-03-23T03:35:22.425Z,19.50
2019-03-23T03:36:23.807Z,19.48
2019-03-23T03:37:25.224Z,19.47
2019-03-23T03:38:26.629Z,19.47
2019-03-23T03:39:28.120Z,19.47
2019-03-23T03:40:29.508Z,19.47
2019-03-23T03:41:31.089Z,19.46
2019-03-23T03:42:33.242Z,19.45
2019-03-23T03:43:34.624Z,19.45
2019-03-23T03:44:36.113Z,19.45
2019-03-23T03:45:37.496Z,19.45
2019-03-23T03:46:38.998Z,19.46
2019-03-23T03:47:41.407Z,19.46
2019-03-23T03:48:43.084Z,19.46
2019-03-23T03:49:44.488Z,19.47
2019-03-23T03:50:45.883Z,19.46
2019-03-23T03:51:47.379Z,19.46
2019-03-23T03:52:48.758Z,19.45
2019-03-23T03:53:50.171Z,19.46
2019-03-23T03:54:51.642Z,19.46
2019-03-23T03:55:53.055Z,19.47
2019-03-23T03:56:54.559Z,19.48
2019-03-23T03:57:55.974Z,19.48
2019-03-23T03:58:57.385Z,19.46
2019-03-23T03:59:58.795Z,19.47
2019-03-23T04:01:00.268Z,19.49
2019-03-23T04:02:01.682Z,19.48
2019-03-23T04:03:03.044Z,19.46
2019-03-23T04:04:04.441Z,19.49
2019-03-23T04:05:06.958Z,19.48
2019-03-23T04:06:08.468Z,19.49
2019-03-23T04:07:09.872Z,19.50
2019-03-23T04:08:12.256Z,19.50
2019-03-23T04:09:13.889Z,19.50
2019-03-23T04:10:15.609Z,19.50
2019-03-23T04:11:16.972Z,19.50
2019-03-23T04:12:18.350Z,19.50
2019-03-23T04:13:19.910Z,19.50
2019-03-23T04:14:21.293Z,19.49
2019-03-23T04:15:22.813Z,19.50
2019-03-23T04:16:24.198Z,19.49
2019-03-23T04:17:25.583Z,19.50
2019-03-23T04:18:27.973Z,19.50
2019-03-23T04:19:29.358Z,19.49
2019-03-23T04:20:30.758Z,19.50
2019-03-23T04:21:32.134Z,19.50
2019-03-23T04:22:33.550Z,19.51
2019-03-23T04:23:36.033Z,19.49
2019-03-23T04:24:37.436Z,19.48
2019-03-23T04:25:38.824Z,19.50
2019-03-23T04:26:40.217Z,19.48
2019-03-23T04:27:41.617Z,19.48
2019-03-23T04:28:43.010Z,19.47
2019-03-23T04:29:44.421Z,19.47
2019-03-23T04:30:45.801Z,19.46
2019-03-23T04:31:47.190Z,19.47
2019-03-23T04:32:48.583Z,19.47
2019-03-23T04:33:49.948Z,19.45
2019-03-23T04:34:51.353Z,19.45
2019-03-23T04:35:52.855Z,19.45
2019-03-23T04:36:54.245Z,19.44
2019-03-23T04:37:55.735Z,19.43
2019-03-23T04:38:57.124Z,19.43
2019-03-23T04:39:58.522Z,19.42
2019-03-23T04:41:00.017Z,19.43
2019-03-23T04:42:01.388Z,19.43
2019-03-23T04:43:02.881Z,19.43
2019-03-23T04:44:04.346Z,19.45
2019-03-23T04:45:08.739Z,19.43
2019-03-23T04:46:10.127Z,19.44
2019-03-23T04:47:11.508Z,19.45
2019-03-23T04:48:13.001Z,19.44
2019-03-23T04:49:14.388Z,19.44
2019-03-23T04:50:15.774Z,19.44
2019-03-23T04:51:17.168Z,19.44
2019-03-23T04:52:18.648Z,19.44
2019-03-23T04:53:20.154Z,19.45
2019-03-23T04:54:21.536Z,19.44
2019-03-23T04:55:23.032Z,19.45
2019-03-23T04:56:24.744Z,19.46
2019-03-23T04:57:26.152Z,19.46
2019-03-23T04:58:27.562Z,19.46
2019-03-23T04:59:28.971Z,19.46
2019-03-23T05:00:30.482Z,19.46
2019-03-23T05:01:31.988Z,19.47
2019-03-23T05:02:33.356Z,19.48
2019-03-23T05:03:34.758Z,19.48
2019-03-23T05:04:36.134Z,19.48
2019-03-23T05:05:37.643Z,19.49
2019-03-23T05:06:39.089Z,19.48
2019-03-23T05:07:40.492Z,19.47
2019-03-23T05:08:41.904Z,19.48
2019-03-23T05:09:43.426Z,19.48
2019-03-23T05:10:45.239Z,19.49
2019-03-23T05:11:46.636Z,19.48
2019-03-23T05:12:48.012Z,19.48
2019-03-23T05:13:49.400Z,19.47
2019-03-23T05:14:50.908Z,19.46
2019-03-23T05:15:52.276Z,19.46
2019-03-23T05:16:53.782Z,19.46
2019-03-23T05:17:55.176Z,19.46
2019-03-23T05:18:56.561Z,19.46
2019-03-23T05:19:58.958Z,19.45
2019-03-23T05:21:00.340Z,19.45
2019-03-23T05:22:02.916Z,19.45
2019-03-23T05:23:04.288Z,19.44
2019-03-23T05:24:05.689Z,19.43
2019-03-23T05:25:11.329Z,19.42
2019-03-23T05:26:12.723Z,19.42
2019-03-23T05:27:14.217Z,19.43
2019-03-23T05:28:15.706Z,19.41
2019-03-23T05:29:17.095Z,19.42
2019-03-23T05:30:18.483Z,19.42
2019-03-23T05:31:19.869Z,19.42
2019-03-23T05:32:21.376Z,19.40
2019-03-23T05:33:22.854Z,19.41
2019-03-23T05:34:24.261Z,19.39
2019-03-23T05:35:25.625Z,19.39
2019-03-23T05:36:27.030Z,19.39
2019-03-23T05:37:28.422Z,19.38
2019-03-23T05:38:29.820Z,19.38
2019-03-23T05:39:31.212Z,19.38
2019-03-23T05:40:32.605Z,19.37
2019-03-23T05:41:34.186Z,19.37
2019-03-23T05:42:35.617Z,19.37
2019-03-23T05:43:37.000Z,19.37
2019-03-23T05:44:38.488Z,19.36
2019-03-23T05:45:39.953Z,19.35
2019-03-23T05:46:42.344Z,19.35
2019-03-23T05:47:43.735Z,19.34
2019-03-23T05:48:45.125Z,19.34
2019-03-23T05:49:46.521Z,19.35
2019-03-23T05:50:47.908Z,19.35
2019-03-23T05:51:49.406Z,19.34
2019-03-23T05:52:50.803Z,19.34
2019-03-23T05:53:52.172Z,19.34
2019-03-23T05:54:53.571Z,19.34
2019-03-23T05:55:54.948Z,19.35
2019-03-23T05:56:56.350Z,19.35
2019-03-23T05:57:57.741Z,19.35
2019-03-23T05:58:59.157Z,19.36
2019-03-23T06:00:00.689Z,19.37
2019-03-23T06:01:02.109Z,19.37
2019-03-23T06:02:03.518Z,19.37
2019-03-23T06:03:04.918Z,19.37
2019-03-23T06:04:06.299Z,19.39
2019-03-23T06:05:07.692Z,19.40
2019-03-23T06:06:09.068Z,19.40
2019-03-23T06:07:11.289Z,19.40
2019-03-23T06:08:12.687Z,19.40
2019-03-23T06:09:14.206Z,19.41
2019-03-23T06:10:15.624Z,19.42
2019-03-23T06:11:17.133Z,19.42
2019-03-23T06:12:19.019Z,19.42
2019-03-23T06:13:20.426Z,19.43
2019-03-23T06:14:21.802Z,19.43
2019-03-23T06:15:23.176Z,19.45
2019-03-23T06:16:24.632Z,19.46
2019-03-23T06:17:26.004Z,19.47
2019-03-23T06:18:27.490Z,19.47
2019-03-23T06:19:28.875Z,19.47
2019-03-23T06:20:30.260Z,19.48
2019-03-23T06:21:31.655Z,19.48
2019-03-23T06:22:33.136Z,19.49
2019-03-23T06:23:34.536Z,19.48
2019-03-23T06:24:35.910Z,19.49
2019-03-23T06:25:37.321Z,19.48
2019-03-23T06:26:38.692Z,19.49
2019-03-23T06:27:40.096Z,19.50
2019-03-23T06:28:41.479Z,19.50
2019-03-23T06:29:42.864Z,19.50
2019-03-23T06:30:44.372Z,19.50
2019-03-23T06:31:45.785Z,19.50
2019-03-23T06:32:47.200Z,19.51
2019-03-23T06:33:48.607Z,19.52
2019-03-23T06:34:49.985Z,19.53
2019-03-23T06:35:51.385Z,19.52
2019-03-23T06:36:52.859Z,19.52
2019-03-23T06:37:54.267Z,19.51
2019-03-23T06:39:05.193Z,19.51
2019-03-23T06:39:59.080Z,19.50
2019-03-23T06:41:00.501Z,19.49
2019-03-23T06:42:01.924Z,19.48
2019-03-23T06:43:03.324Z,19.47
2019-03-23T06:44:04.848Z,19.48
2019-03-23T06:45:08.222Z,19.47
2019-03-23T06:46:09.606Z,19.46
2019-03-23T06:47:11.056Z,19.46
2019-03-23T06:48:12.430Z,19.46
2019-03-23T06:49:13.822Z,19.45
2019-03-23T06:50:15.212Z,19.44
2019-03-23T06:51:16.598Z,19.45
2019-03-23T06:52:18.186Z,19.44
2019-03-23T06:53:19.571Z,19.44
2019-03-23T06:54:20.968Z,19.44
2019-03-23T06:55:22.456Z,19.44
2019-03-23T06:56:23.967Z,19.42
2019-03-23T06:57:25.385Z,19.43
2019-03-23T06:58:26.828Z,19.43
2019-03-23T06:59:28.337Z,19.44
2019-03-23T07:00:29.818Z,19.45
2019-03-23T07:01:31.327Z,19.45
2019-03-23T07:02:33.794Z,19.44
2019-03-23T07:03:35.196Z,19.43
2019-03-23T07:04:36.574Z,19.45
2019-03-23T07:05:37.985Z,19.44
2019-03-23T07:06:40.395Z,19.43
2019-03-23T07:07:41.803Z,19.44
2019-03-23T07:08:44.207Z,19.45
2019-03-23T07:09:45.620Z,19.48
2019-03-23T07:10:46.999Z,19.49
2019-03-23T07:11:48.404Z,19.51
2019-03-23T07:12:50.881Z,19.54
2019-03-23T07:13:52.276Z,19.58
2019-03-23T07:14:55.581Z,19.63
2019-03-23T07:15:58.093Z,19.66
2019-03-23T07:16:59.575Z,19.71
2019-03-23T07:18:01.037Z,19.75
2019-03-23T07:19:02.409Z,19.79
2019-03-23T07:20:06.510Z,19.83
2019-03-23T07:21:07.885Z,19.88
2019-03-23T07:22:09.287Z,19.93
2019-03-23T07:23:11.758Z,19.98
2019-03-23T07:24:13.157Z,20.01
2019-03-23T07:25:14.568Z,20.06
2019-03-23T07:26:15.949Z,20.10
2019-03-23T07:27:17.427Z,20.15
2019-03-23T07:28:18.918Z,20.19
2019-03-23T07:29:20.397Z,20.23
2019-03-23T07:30:21.792Z,20.27
2019-03-23T07:31:23.264Z,20.31
2019-03-23T07:32:24.656Z,20.36
2019-03-23T07:33:26.024Z,20.41
2019-03-23T07:34:27.520Z,20.44
2019-03-23T07:35:29.013Z,20.47
2019-03-23T07:36:30.401Z,20.50
2019-03-23T07:37:31.789Z,20.53
2019-03-23T07:38:33.186Z,20.55
2019-03-23T07:39:34.668Z,20.58
2019-03-23T07:40:36.069Z,20.61
2019-03-23T07:41:37.444Z,20.63
2019-03-23T07:42:38.846Z,20.66
2019-03-23T07:43:40.232Z,20.68
2019-03-23T07:44:41.628Z,20.71
2019-03-23T07:45:43.288Z,20.73
2019-03-23T07:46:44.686Z,20.77
2019-03-23T07:47:46.056Z,20.79
2019-03-23T07:48:47.619Z,20.81
2019-03-23T07:49:48.993Z,20.83
2019-03-23T07:50:50.385Z,20.84
2019-03-23T07:51:51.767Z,20.89
2019-03-23T07:52:53.147Z,20.90
2019-03-23T07:53:54.536Z,20.92
2019-03-23T07:54:59.526Z,20.94
2019-03-23T07:56:01.058Z,20.97
2019-03-23T07:57:03.427Z,21.00
2019-03-23T07:58:04.843Z,21.03
2019-03-23T07:59:07.196Z,21.04
2019-03-23T08:00:11.888Z,21.06
2019-03-23T08:01:13.268Z,21.07
2019-03-23T08:02:14.655Z,21.09
2019-03-23T08:03:16.039Z,21.11
2019-03-23T08:04:17.536Z,21.12
2019-03-23T08:05:19.619Z,21.14
2019-03-23T08:06:21.030Z,21.15
2019-03-23T08:07:22.402Z,21.15
2019-03-23T08:08:23.802Z,21.16
2019-03-23T08:09:25.177Z,21.18
2019-03-23T08:10:31.678Z,21.18
2019-03-23T08:11:33.068Z,21.18
2019-03-23T08:12:34.561Z,21.21
2019-03-23T08:13:35.944Z,21.22
2019-03-23T08:14:37.336Z,21.21
2019-03-23T08:15:38.732Z,21.23
2019-03-23T08:16:40.724Z,21.23
2019-03-23T08:17:42.097Z,21.25
2019-03-23T08:18:44.494Z,21.25
2019-03-23T08:19:45.941Z,21.25
2019-03-23T08:20:47.329Z,21.26
2019-03-23T08:21:48.716Z,21.25
2019-03-23T08:22:50.308Z,21.25
2019-03-23T08:23:51.683Z,21.25
2019-03-23T08:24:53.065Z,21.23
2019-03-23T08:25:54.464Z,21.25
2019-03-23T08:26:56.048Z,21.26
2019-03-23T08:27:57.513Z,21.26
2019-03-23T08:28:59.912Z,21.25
2019-03-23T08:30:01.409Z,21.26
2019-03-23T08:31:02.809Z,21.25
2019-03-23T08:32:04.233Z,21.24
2019-03-23T08:33:05.741Z,21.25
2019-03-23T08:34:07.146Z,21.24
2019-03-23T08:35:08.653Z,21.25
2019-03-23T08:36:10.055Z,21.24
2019-03-23T08:37:11.455Z,21.25
2019-03-23T08:38:12.936Z,21.25
2019-03-23T08:39:14.331Z,21.24
2019-03-23T08:40:15.701Z,21.24
2019-03-23T08:41:17.100Z,21.25
2019-03-23T08:42:18.789Z,21.24
2019-03-23T08:43:20.269Z,21.24
2019-03-23T08:44:21.687Z,21.23
2019-03-23T08:45:23.122Z,21.24
2019-03-23T08:46:24.539Z,21.23
2019-03-23T08:47:25.959Z,21.22
2019-03-23T08:48:27.339Z,21.23
2019-03-23T08:49:28.753Z,21.23
2019-03-23T08:50:30.182Z,21.23
2019-03-23T08:51:31.560Z,21.23
2019-03-23T08:52:33.052Z,21.22
2019-03-23T08:53:34.441Z,21.21
2019-03-23T08:54:35.833Z,21.22
2019-03-23T08:55:37.218Z,21.23
2019-03-23T08:56:38.607Z,21.24
2019-03-23T08:57:41.396Z,21.24
2019-03-23T08:58:42.720Z,21.23
2019-03-23T08:59:44.232Z,21.24
2019-03-23T09:00:45.649Z,21.23
2019-03-23T09:01:47.115Z,21.24
2019-03-23T09:02:48.475Z,21.23
2019-03-23T09:03:52.726Z,21.24
2019-03-23T09:04:53.141Z,21.25
2019-03-23T09:05:54.516Z,21.25
2019-03-23T09:06:55.916Z,21.26
2019-03-23T09:07:57.410Z,21.26
2019-03-23T09:08:58.829Z,21.27
2019-03-23T09:10:00.351Z,21.26
2019-03-23T09:11:02.056Z,21.27
2019-03-23T09:12:03.765Z,21.28
2019-03-23T09:13:06.161Z,21.28
2019-03-23T09:14:07.542Z,21.30
2019-03-23T09:15:09.548Z,21.29
2019-03-23T09:16:11.011Z,21.29
2019-03-23T09:17:12.404Z,21.30
2019-03-23T09:18:13.793Z,21.30
2019-03-23T09:19:15.397Z,21.32
2019-03-23T09:20:16.788Z,21.31
2019-03-23T09:21:18.359Z,21.32
2019-03-23T09:22:19.735Z,21.34
2019-03-23T09:23:21.124Z,21.33
2019-03-23T09:24:22.488Z,21.36
2019-03-23T09:25:23.886Z,21.36
2019-03-23T09:26:25.255Z,21.37
2019-03-23T09:27:26.642Z,21.38
2019-03-23T09:28:28.024Z,21.39
2019-03-23T09:29:29.409Z,21.39
2019-03-23T09:30:30.803Z,21.40
2019-03-23T09:31:32.353Z,21.42
2019-03-23T09:32:33.736Z,21.44
2019-03-23T09:33:35.127Z,21.46
2019-03-23T09:34:37.511Z,21.47
2019-03-23T09:35:39.305Z,21.50
2019-03-23T09:36:41.447Z,21.52
2019-03-23T09:37:42.996Z,21.52
2019-03-23T09:38:44.379Z,21.54
2019-03-23T09:39:45.772Z,21.54
2019-03-23T09:40:47.168Z,21.56
2019-03-23T09:41:48.552Z,21.56
2019-03-23T09:42:49.942Z,21.56
2019-03-23T09:43:51.444Z,21.57
2019-03-23T09:44:52.818Z,21.57
2019-03-23T09:45:54.220Z,21.59
2019-03-23T09:46:55.703Z,21.60
2019-03-23T09:47:57.111Z,21.61
2019-03-23T09:48:58.526Z,21.62
2019-03-23T09:50:00.310Z,21.61
2019-03-23T09:51:01.741Z,21.60
2019-03-23T09:52:03.184Z,21.60
2019-03-23T09:53:04.559Z,21.60
2019-03-23T09:54:05.948Z,21.59
2019-03-23T09:55:07.873Z,21.60
2019-03-23T09:56:09.268Z,21.59
2019-03-23T09:57:10.662Z,21.60
2019-03-23T09:58:12.049Z,21.59
2019-03-23T09:59:13.460Z,21.58
2019-03-23T10:00:14.967Z,21.56
2019-03-23T10:01:16.382Z,21.58
2019-03-23T10:02:17.793Z,21.58
2019-03-23T10:03:19.305Z,21.58
2019-03-23T10:04:20.708Z,21.57
2019-03-23T10:05:22.092Z,21.57
2019-03-23T10:06:23.485Z,21.56
2019-03-23T10:07:24.860Z,21.56
2019-03-23T10:08:26.667Z,21.55
2019-03-23T10:09:28.062Z,21.55
2019-03-23T10:10:29.472Z,21.55
2019-03-23T10:11:30.989Z,21.58
2019-03-23T10:12:32.505Z,21.62
2019-03-23T10:13:33.912Z,21.66
2019-03-23T10:14:35.338Z,21.72
2019-03-23T10:15:36.708Z,21.75
2019-03-23T10:16:38.114Z,21.79
2019-03-23T10:17:39.502Z,21.81
2019-03-23T10:18:40.916Z,21.84
2019-03-23T10:19:42.393Z,21.87
2019-03-23T10:20:43.804Z,21.89
2019-03-23T10:21:45.183Z,21.92
2019-03-23T10:22:46.766Z,21.95
2019-03-23T10:23:48.244Z,21.97
2019-03-23T10:24:49.659Z,21.99
2019-03-23T10:25:51.032Z,22.00
2019-03-23T10:26:52.447Z,22.01
2019-03-23T10:27:53.812Z,22.03
2019-03-23T10:28:55.213Z,22.04
2019-03-23T10:29:56.599Z,22.04
2019-03-23T10:30:58.081Z,22.05
2019-03-23T10:31:59.464Z,22.05
2019-03-23T10:33:00.854Z,22.05
2019-03-23T10:34:02.243Z,22.05
2019-03-23T10:35:05.844Z,22.04
2019-03-23T10:36:07.220Z,22.05
2019-03-23T10:37:08.733Z,22.06
2019-03-23T10:38:10.204Z,22.07
2019-03-23T10:39:11.704Z,22.07
2019-03-23T10:40:13.202Z,22.07
2019-03-23T10:41:14.589Z,22.07
2019-03-23T10:42:16.348Z,22.08
2019-03-23T10:43:17.776Z,22.08
2019-03-23T10:44:19.280Z,22.09
2019-03-23T10:45:20.774Z,22.09
2019-03-23T10:46:22.248Z,22.10
2019-03-23T10:47:23.664Z,22.09
2019-03-23T10:48:25.029Z,22.07
2019-03-23T10:49:26.515Z,22.09
2019-03-23T10:50:27.899Z,22.09
2019-03-23T10:51:29.289Z,22.08
2019-03-23T10:52:31.700Z,22.08
2019-03-23T10:53:33.264Z,22.07
2019-03-23T10:54:34.640Z,22.07
2019-03-23T10:55:36.150Z,22.07
2019-03-23T10:56:37.532Z,22.06
2019-03-23T10:57:39.017Z,22.05
2019-03-23T10:58:40.425Z,22.04
2019-03-23T10:59:41.846Z,22.03
2019-03-23T11:00:43.348Z,22.02
2019-03-23T11:01:44.721Z,22.01
2019-03-23T11:02:46.124Z,22.00
2019-03-23T11:03:47.501Z,22.00
2019-03-23T11:04:49.400Z,21.99
2019-03-23T11:05:50.786Z,22.00
2019-03-23T11:06:52.199Z,21.99
2019-03-23T11:07:53.600Z,21.99
2019-03-23T11:08:55.009Z,21.98
2019-03-23T11:09:56.541Z,21.97
2019-03-23T11:10:58.036Z,21.98
2019-03-23T11:11:59.437Z,21.98
2019-03-23T11:13:00.812Z,21.99
2019-03-23T11:14:02.189Z,22.00
2019-03-23T11:15:06.187Z,22.00
2019-03-23T11:16:07.596Z,21.99
2019-03-23T11:17:09.002Z,22.02
2019-03-23T11:18:10.501Z,22.01
2019-03-23T11:19:13.572Z,22.03
2019-03-23T11:20:15.320Z,22.01
2019-03-23T11:21:16.728Z,22.03
2019-03-23T11:22:18.180Z,22.02
2019-03-23T11:23:20.014Z,22.04
2019-03-23T11:24:21.538Z,22.03
2019-03-23T11:25:23.020Z,22.05
2019-03-23T11:26:24.427Z,22.05
2019-03-23T11:27:25.920Z,22.05
2019-03-23T11:28:27.299Z,22.05
2019-03-23T11:29:28.698Z,22.07
2019-03-23T11:30:30.094Z,22.05
2019-03-23T11:31:31.831Z,22.06
2019-03-23T11:32:33.298Z,22.06
2019-03-23T11:33:34.806Z,22.08
2019-03-23T11:34:36.318Z,22.07
2019-03-23T11:35:37.684Z,22.08
2019-03-23T11:36:39.072Z,22.07
2019-03-23T11:37:40.783Z,22.08
2019-03-23T11:38:42.454Z,22.07
2019-03-23T11:39:43.848Z,22.08
2019-03-23T11:40:53.785Z,22.08
2019-03-23T11:41:48.646Z,22.07
2019-03-23T11:42:50.541Z,22.07
2019-03-23T11:43:52.029Z,22.05
2019-03-23T11:44:53.476Z,22.06
2019-03-23T11:45:54.914Z,22.05
2019-03-23T11:46:56.303Z,22.05
2019-03-23T11:47:57.688Z,22.05
2019-03-23T11:48:59.076Z,22.05
2019-03-23T11:50:00.467Z,22.05
2019-03-23T11:51:01.856Z,22.04
2019-03-23T11:52:03.265Z,22.02
2019-03-23T11:53:04.640Z,22.03
2019-03-23T11:54:06.408Z,22.02
2019-03-23T11:55:08.482Z,22.01
2019-03-23T11:56:09.971Z,22.02
2019-03-23T11:57:11.385Z,21.98
2019-03-23T11:58:12.794Z,21.97
2019-03-23T11:59:14.214Z,21.94
2019-03-23T12:00:15.627Z,21.92
2019-03-23T12:01:17.026Z,21.90
2019-03-23T12:02:18.424Z,21.87
2019-03-23T12:03:19.804Z,21.85
2019-03-23T12:04:21.309Z,21.81
2019-03-23T12:05:22.687Z,21.80
2019-03-23T12:06:24.192Z,21.77
2019-03-23T12:07:25.581Z,21.75
2019-03-23T12:08:26.997Z,21.73
2019-03-23T12:09:28.409Z,21.70
2019-03-23T12:10:29.819Z,21.69
2019-03-23T12:11:31.227Z,21.67
2019-03-23T12:12:32.639Z,21.64
2019-03-23T12:13:34.017Z,21.62
2019-03-23T12:14:35.524Z,21.61
2019-03-23T12:15:37.018Z,21.59
2019-03-23T12:16:38.421Z,21.58
2019-03-23T12:17:39.809Z,21.56
2019-03-23T12:18:41.211Z,21.56
2019-03-23T12:19:42.726Z,21.53
2019-03-23T12:20:44.240Z,21.53
2019-03-23T12:21:45.752Z,21.52
2019-03-23T12:22:47.256Z,21.52
2019-03-23T12:23:48.623Z,21.51
2019-03-23T12:24:50.011Z,21.50
2019-03-23T12:25:51.473Z,21.50
2019-03-23T12:26:52.854Z,21.50
2019-03-23T12:27:54.245Z,21.49
2019-03-23T12:28:55.624Z,21.48
2019-03-23T12:30:06.762Z,21.48
2019-03-23T12:31:00.300Z,21.46
2019-03-23T12:32:01.684Z,21.46
2019-03-23T12:33:03.083Z,21.46
2019-03-23T12:34:04.452Z,21.45
2019-03-23T12:35:06.849Z,21.46
2019-03-23T12:36:08.225Z,21.45
2019-03-23T12:37:09.623Z,21.46
2019-03-23T12:38:11.008Z,21.46
2019-03-23T12:39:12.394Z,21.47
2019-03-23T12:40:14.080Z,21.49
2019-03-23T12:41:23.062Z,21.50
2019-03-23T12:42:18.872Z,21.52
2019-03-23T12:43:20.268Z,21.51
2019-03-23T12:44:21.645Z,21.53
2019-03-23T12:45:23.141Z,21.52
2019-03-23T12:46:24.513Z,21.53
2019-03-23T12:47:25.912Z,21.54
2019-03-23T12:48:27.299Z,21.55
2019-03-23T12:49:28.795Z,21.55
2019-03-23T12:50:30.180Z,21.57
2019-03-23T12:51:31.569Z,21.58
2019-03-23T12:52:33.052Z,21.60
2019-03-23T12:53:34.459Z,21.60
2019-03-23T12:54:36.827Z,21.61
2019-03-23T12:55:38.223Z,21.62
2019-03-23T12:56:39.721Z,21.60
2019-03-23T12:57:41.162Z,21.61
2019-03-23T12:58:42.585Z,21.62
2019-03-23T12:59:43.989Z,21.61
2019-03-23T13:00:45.505Z,21.60
2019-03-23T13:01:46.919Z,21.62
2019-03-23T13:02:48.433Z,21.60
2019-03-23T13:03:49.911Z,21.61
2019-03-23T13:04:51.287Z,21.60
2019-03-23T13:05:52.784Z,21.60
2019-03-23T13:06:54.156Z,21.59
2019-03-23T13:07:55.556Z,21.59
2019-03-23T13:08:56.948Z,21.59
2019-03-23T13:09:58.358Z,21.59
2019-03-23T13:10:59.774Z,21.59
2019-03-23T13:12:01.178Z,21.59
2019-03-23T13:13:02.694Z,21.58